sensor_id;sensor_type;location;lat;lon;timestamp;P1;durP1;ratioP1;P2;durP2;ratioP2
5060;SDS011;2549;52.128;21.068;2022-10-26T00:01:12;15.40;;;8.80;;
5060;SDS011;2549;52.128;21.068;2022-10-26T00:03:41;12.77;;;9.17;;
5060;SDS011;2549;52.128;21.068;2022-10-26T00:08:44;13.90;;;8.70;;
5060;SDS011;2549;52.128;21.068;2022-10-26T00:11:12;13.53;;;8.47;;
5060;SDS011;2549;52.128;21.068;2022-10-26T00:13:40;20.93;;;10.20;;
5060;SDS011;2549;52.128;21.068;2022-10-26T00:16:15;11.70;;;8.17;;
5060;SDS011;2549;52.128;21.068;2022-10-26T00:18:45;10.70;;;8.13;;
5060;SDS011;2549;52.128;21.068;2022-10-26T00:21:12;14.30;;;8.87;;
5060;SDS011;2549;52.128;21.068;2022-10-26T00:23:39;19.87;;;9.83;;
5060;SDS011;2549;52.128;21.068;2022-10-26T00:26:06;12.90;;;9.07;;
5060;SDS011;2549;52.128;21.068;2022-10-26T00:28:33;12.07;;;9.20;;
5060;SDS011;2549;52.128;21.068;2022-10-26T00:31:01;13.17;;;8.57;;
5060;SDS011;2549;52.128;21.068;2022-10-26T00:33:29;13.30;;;8.27;;
5060;SDS011;2549;52.128;21.068;2022-10-26T00:35:56;12.60;;;8.30;;
5060;SDS011;2549;52.128;21.068;2022-10-26T00:38:24;10.30;;;8.30;;
5060;SDS011;2549;52.128;21.068;2022-10-26T00:40:50;14.83;;;9.37;;
5060;SDS011;2549;52.128;21.068;2022-10-26T00:45:48;15.27;;;9.30;;
5060;SDS011;2549;52.128;21.068;2022-10-26T00:48:29;17.37;;;10.43;;
5060;SDS011;2549;52.128;21.068;2022-10-26T00:51:02;16.70;;;9.40;;
5060;SDS011;2549;52.128;21.068;2022-10-26T00:53:32;15.07;;;8.53;;
5060;SDS011;2549;52.128;21.068;2022-10-26T00:56:00;13.47;;;9.33;;
5060;SDS011;2549;52.128;21.068;2022-10-26T00:58:27;19.87;;;9.30;;
5060;SDS011;2549;52.128;21.068;2022-10-26T01:00:55;18.37;;;10.00;;
5060;SDS011;2549;52.128;21.068;2022-10-26T01:03:22;22.90;;;11.30;;
5060;SDS011;2549;52.128;21.068;2022-10-26T01:05:54;14.97;;;9.73;;
5060;SDS011;2549;52.128;21.068;2022-10-26T01:08:22;13.73;;;10.80;;
5060;SDS011;2549;52.128;21.068;2022-10-26T01:10:53;19.50;;;12.80;;
5060;SDS011;2549;52.128;21.068;2022-10-26T01:13:22;16.60;;;11.10;;
5060;SDS011;2549;52.128;21.068;2022-10-26T01:21:17;21.73;;;13.60;;
5060;SDS011;2549;52.128;21.068;2022-10-26T01:31:30;22.40;;;12.33;;
5060;SDS011;2549;52.128;21.068;2022-10-26T01:34:13;27.73;;;14.73;;
5060;SDS011;2549;52.128;21.068;2022-10-26T01:36:54;18.07;;;12.00;;
5060;SDS011;2549;52.128;21.068;2022-10-26T01:39:27;18.07;;;12.77;;
5060;SDS011;2549;52.128;21.068;2022-10-26T01:41:58;21.40;;;12.10;;
5060;SDS011;2549;52.128;21.068;2022-10-26T01:44:28;19.20;;;11.80;;
5060;SDS011;2549;52.128;21.068;2022-10-26T01:46:58;15.43;;;10.20;;
5060;SDS011;2549;52.128;21.068;2022-10-26T01:49:30;17.73;;;11.73;;
5060;SDS011;2549;52.128;21.068;2022-10-26T01:52:00;18.00;;;11.30;;
5060;SDS011;2549;52.128;21.068;2022-10-26T01:54:27;18.30;;;12.33;;
5060;SDS011;2549;52.128;21.068;2022-10-26T01:56:55;20.23;;;11.97;;
5060;SDS011;2549;52.128;21.068;2022-10-26T02:04:56;15.00;;;10.47;;
5060;SDS011;2549;52.128;21.068;2022-10-26T02:10:31;19.23;;;10.80;;
5060;SDS011;2549;52.128;21.068;2022-10-26T02:13:12;15.90;;;10.63;;
5060;SDS011;2549;52.128;21.068;2022-10-26T02:19:00;13.50;;;10.20;;
5060;SDS011;2549;52.128;21.068;2022-10-26T02:21:47;21.10;;;11.73;;
5060;SDS011;2549;52.128;21.068;2022-10-26T02:24:20;16.43;;;11.13;;
5060;SDS011;2549;52.128;21.068;2022-10-26T02:26:48;13.80;;;10.87;;
5060;SDS011;2549;52.128;21.068;2022-10-26T02:29:18;23.63;;;11.80;;
5060;SDS011;2549;52.128;21.068;2022-10-26T02:31:46;16.67;;;10.50;;
5060;SDS011;2549;52.128;21.068;2022-10-26T02:34:17;20.00;;;11.73;;
5060;SDS011;2549;52.128;21.068;2022-10-26T02:36:47;23.33;;;10.53;;
5060;SDS011;2549;52.128;21.068;2022-10-26T02:39:16;16.80;;;10.93;;
5060;SDS011;2549;52.128;21.068;2022-10-26T02:41:44;19.13;;;11.10;;
5060;SDS011;2549;52.128;21.068;2022-10-26T02:44:15;20.37;;;11.60;;
5060;SDS011;2549;52.128;21.068;2022-10-26T02:46:49;18.80;;;11.60;;
5060;SDS011;2549;52.128;21.068;2022-10-26T02:49:18;18.40;;;12.17;;
5060;SDS011;2549;52.128;21.068;2022-10-26T02:51:49;21.00;;;13.00;;
5060;SDS011;2549;52.128;21.068;2022-10-26T02:57:04;26.47;;;12.40;;
5060;SDS011;2549;52.128;21.068;2022-10-26T02:59:39;16.70;;;12.37;;
5060;SDS011;2549;52.128;21.068;2022-10-26T03:02:09;20.20;;;12.60;;
5060;SDS011;2549;52.128;21.068;2022-10-26T03:04:38;25.33;;;12.80;;
5060;SDS011;2549;52.128;21.068;2022-10-26T03:07:05;21.87;;;12.10;;
5060;SDS011;2549;52.128;21.068;2022-10-26T03:09:32;20.93;;;12.47;;
5060;SDS011;2549;52.128;21.068;2022-10-26T03:11:58;17.53;;;12.57;;
5060;SDS011;2549;52.128;21.068;2022-10-26T03:14:25;18.73;;;12.60;;
5060;SDS011;2549;52.128;21.068;2022-10-26T03:16:52;20.23;;;12.20;;
5060;SDS011;2549;52.128;21.068;2022-10-26T03:19:19;18.50;;;11.53;;
5060;SDS011;2549;52.128;21.068;2022-10-26T03:21:46;29.73;;;13.47;;
5060;SDS011;2549;52.128;21.068;2022-10-26T03:24:13;18.87;;;11.60;;
5060;SDS011;2549;52.128;21.068;2022-10-26T03:26:39;19.77;;;12.07;;
5060;SDS011;2549;52.128;21.068;2022-10-26T03:29:06;16.30;;;11.33;;
5060;SDS011;2549;52.128;21.068;2022-10-26T03:31:34;16.07;;;12.07;;
5060;SDS011;2549;52.128;21.068;2022-10-26T03:34:01;21.93;;;13.20;;
5060;SDS011;2549;52.128;21.068;2022-10-26T03:36:28;23.03;;;13.60;;
5060;SDS011;2549;52.128;21.068;2022-10-26T03:38:54;23.13;;;12.57;;
5060;SDS011;2549;52.128;21.068;2022-10-26T03:41:21;16.57;;;12.50;;
5060;SDS011;2549;52.128;21.068;2022-10-26T03:43:48;23.43;;;11.17;;
5060;SDS011;2549;52.128;21.068;2022-10-26T03:46:15;17.53;;;12.20;;
5060;SDS011;2549;52.128;21.068;2022-10-26T03:48:42;18.80;;;11.53;;
5060;SDS011;2549;52.128;21.068;2022-10-26T03:51:09;19.83;;;12.67;;
5060;SDS011;2549;52.128;21.068;2022-10-26T03:53:35;25.17;;;14.03;;
5060;SDS011;2549;52.128;21.068;2022-10-26T03:56:02;28.03;;;14.00;;
5060;SDS011;2549;52.128;21.068;2022-10-26T03:58:29;24.63;;;12.87;;
5060;SDS011;2549;52.128;21.068;2022-10-26T04:00:56;25.43;;;12.40;;
5060;SDS011;2549;52.128;21.068;2022-10-26T04:03:23;26.73;;;14.10;;
5060;SDS011;2549;52.128;21.068;2022-10-26T04:05:50;22.90;;;12.90;;
5060;SDS011;2549;52.128;21.068;2022-10-26T04:08:17;21.40;;;12.87;;
5060;SDS011;2549;52.128;21.068;2022-10-26T04:10:44;19.07;;;11.90;;
5060;SDS011;2549;52.128;21.068;2022-10-26T04:13:12;26.33;;;12.90;;
5060;SDS011;2549;52.128;21.068;2022-10-26T04:15:39;20.30;;;13.07;;
5060;SDS011;2549;52.128;21.068;2022-10-26T04:18:07;26.67;;;13.67;;
5060;SDS011;2549;52.128;21.068;2022-10-26T04:20:34;21.70;;;14.20;;
5060;SDS011;2549;52.128;21.068;2022-10-26T04:23:05;22.53;;;13.73;;
5060;SDS011;2549;52.128;21.068;2022-10-26T04:25:32;20.20;;;13.17;;
5060;SDS011;2549;52.128;21.068;2022-10-26T04:28:00;20.40;;;13.90;;
5060;SDS011;2549;52.128;21.068;2022-10-26T04:30:27;19.53;;;13.47;;
5060;SDS011;2549;52.128;21.068;2022-10-26T04:32:54;18.37;;;11.70;;
5060;SDS011;2549;52.128;21.068;2022-10-26T04:35:21;17.87;;;12.60;;
5060;SDS011;2549;52.128;21.068;2022-10-26T04:37:49;23.73;;;13.53;;
5060;SDS011;2549;52.128;21.068;2022-10-26T04:40:15;24.40;;;13.30;;
5060;SDS011;2549;52.128;21.068;2022-10-26T04:42:43;22.83;;;12.97;;
5060;SDS011;2549;52.128;21.068;2022-10-26T04:45:13;16.90;;;12.60;;
5060;SDS011;2549;52.128;21.068;2022-10-26T04:47:41;26.83;;;14.97;;
5060;SDS011;2549;52.128;21.068;2022-10-26T04:50:09;21.23;;;12.10;;
5060;SDS011;2549;52.128;21.068;2022-10-26T04:52:37;20.50;;;12.57;;
5060;SDS011;2549;52.128;21.068;2022-10-26T04:55:05;18.90;;;13.30;;
5060;SDS011;2549;52.128;21.068;2022-10-26T04:57:32;23.97;;;14.80;;
5060;SDS011;2549;52.128;21.068;2022-10-26T05:00:00;19.20;;;12.80;;
5060;SDS011;2549;52.128;21.068;2022-10-26T05:02:29;22.37;;;13.73;;
5060;SDS011;2549;52.128;21.068;2022-10-26T05:04:56;22.30;;;14.40;;
5060;SDS011;2549;52.128;21.068;2022-10-26T05:07:23;25.57;;;17.13;;
5060;SDS011;2549;52.128;21.068;2022-10-26T05:09:50;31.73;;;17.47;;
5060;SDS011;2549;52.128;21.068;2022-10-26T05:12:16;18.50;;;13.97;;
5060;SDS011;2549;52.128;21.068;2022-10-26T05:14:43;30.90;;;17.10;;
5060;SDS011;2549;52.128;21.068;2022-10-26T05:17:10;22.13;;;15.63;;
5060;SDS011;2549;52.128;21.068;2022-10-26T05:19:37;27.70;;;14.80;;
5060;SDS011;2549;52.128;21.068;2022-10-26T05:22:04;30.93;;;15.07;;
5060;SDS011;2549;52.128;21.068;2022-10-26T05:24:31;26.67;;;15.30;;
5060;SDS011;2549;52.128;21.068;2022-10-26T05:26:58;26.77;;;14.97;;
5060;SDS011;2549;52.128;21.068;2022-10-26T05:29:25;25.43;;;14.77;;
5060;SDS011;2549;52.128;21.068;2022-10-26T05:31:52;35.67;;;16.67;;
5060;SDS011;2549;52.128;21.068;2022-10-26T05:34:18;26.53;;;16.27;;
5060;SDS011;2549;52.128;21.068;2022-10-26T05:36:45;28.83;;;16.53;;
5060;SDS011;2549;52.128;21.068;2022-10-26T05:39:12;21.70;;;14.97;;
5060;SDS011;2549;52.128;21.068;2022-10-26T05:41:39;28.97;;;17.03;;
5060;SDS011;2549;52.128;21.068;2022-10-26T05:44:06;26.30;;;15.57;;
5060;SDS011;2549;52.128;21.068;2022-10-26T05:46:32;23.43;;;14.10;;
5060;SDS011;2549;52.128;21.068;2022-10-26T05:48:59;21.57;;;15.20;;
5060;SDS011;2549;52.128;21.068;2022-10-26T05:51:26;23.27;;;14.37;;
5060;SDS011;2549;52.128;21.068;2022-10-26T05:53:53;21.20;;;13.63;;
5060;SDS011;2549;52.128;21.068;2022-10-26T05:56:23;23.53;;;15.27;;
5060;SDS011;2549;52.128;21.068;2022-10-26T05:59:01;22.53;;;15.70;;
5060;SDS011;2549;52.128;21.068;2022-10-26T06:01:31;25.27;;;15.17;;
5060;SDS011;2549;52.128;21.068;2022-10-26T06:06:54;29.90;;;17.30;;
5060;SDS011;2549;52.128;21.068;2022-10-26T06:09:22;28.90;;;17.57;;
5060;SDS011;2549;52.128;21.068;2022-10-26T06:11:49;28.37;;;17.87;;
5060;SDS011;2549;52.128;21.068;2022-10-26T06:14:17;25.03;;;15.70;;
5060;SDS011;2549;52.128;21.068;2022-10-26T06:30:43;31.80;;;15.93;;
5060;SDS011;2549;52.128;21.068;2022-10-26T06:33:11;24.93;;;14.60;;
5060;SDS011;2549;52.128;21.068;2022-10-26T06:39:02;19.10;;;13.30;;
5060;SDS011;2549;52.128;21.068;2022-10-26T06:41:33;22.90;;;14.80;;
5060;SDS011;2549;52.128;21.068;2022-10-26T06:44:01;19.80;;;13.27;;
5060;SDS011;2549;52.128;21.068;2022-10-26T06:57:02;20.10;;;13.20;;
5060;SDS011;2549;52.128;21.068;2022-10-26T06:59:30;22.00;;;14.57;;
5060;SDS011;2549;52.128;21.068;2022-10-26T07:02:04;22.73;;;13.53;;
5060;SDS011;2549;52.128;21.068;2022-10-26T07:04:32;20.03;;;11.93;;
5060;SDS011;2549;52.128;21.068;2022-10-26T07:06:59;25.77;;;13.93;;
5060;SDS011;2549;52.128;21.068;2022-10-26T07:09:26;22.60;;;12.27;;
5060;SDS011;2549;52.128;21.068;2022-10-26T07:11:52;19.83;;;11.53;;
5060;SDS011;2549;52.128;21.068;2022-10-26T07:14:19;21.27;;;11.83;;
5060;SDS011;2549;52.128;21.068;2022-10-26T07:16:46;18.90;;;11.60;;
5060;SDS011;2549;52.128;21.068;2022-10-26T07:19:13;20.47;;;12.00;;
5060;SDS011;2549;52.128;21.068;2022-10-26T07:21:40;34.20;;;13.37;;
5060;SDS011;2549;52.128;21.068;2022-10-26T07:24:07;18.60;;;11.50;;
5060;SDS011;2549;52.128;21.068;2022-10-26T07:26:34;15.53;;;11.73;;
5060;SDS011;2549;52.128;21.068;2022-10-26T07:29:00;27.40;;;12.50;;
5060;SDS011;2549;52.128;21.068;2022-10-26T07:31:27;19.73;;;12.00;;
5060;SDS011;2549;52.128;21.068;2022-10-26T07:33:54;20.13;;;11.50;;
5060;SDS011;2549;52.128;21.068;2022-10-26T07:36:21;18.13;;;11.40;;
5060;SDS011;2549;52.128;21.068;2022-10-26T07:38:51;17.10;;;10.57;;
5060;SDS011;2549;52.128;21.068;2022-10-26T07:41:19;13.13;;;9.20;;
5060;SDS011;2549;52.128;21.068;2022-10-26T07:43:46;20.20;;;10.47;;
5060;SDS011;2549;52.128;21.068;2022-10-26T07:46:15;24.23;;;11.57;;
5060;SDS011;2549;52.128;21.068;2022-10-26T07:48:43;18.97;;;10.90;;
5060;SDS011;2549;52.128;21.068;2022-10-26T07:51:10;14.00;;;9.67;;
5060;SDS011;2549;52.128;21.068;2022-10-26T07:53:37;18.17;;;10.23;;
5060;SDS011;2549;52.128;21.068;2022-10-26T07:56:04;11.20;;;8.23;;
5060;SDS011;2549;52.128;21.068;2022-10-26T07:58:31;21.30;;;9.90;;
5060;SDS011;2549;52.128;21.068;2022-10-26T08:01:04;17.37;;;9.20;;
5060;SDS011;2549;52.128;21.068;2022-10-26T08:03:35;14.97;;;8.70;;
5060;SDS011;2549;52.128;21.068;2022-10-26T08:06:03;15.70;;;10.27;;
5060;SDS011;2549;52.128;21.068;2022-10-26T08:08:30;16.00;;;10.07;;
5060;SDS011;2549;52.128;21.068;2022-10-26T08:10:57;14.87;;;10.10;;
5060;SDS011;2549;52.128;21.068;2022-10-26T08:13:25;15.70;;;9.87;;
5060;SDS011;2549;52.128;21.068;2022-10-26T08:15:55;22.23;;;9.27;;
5060;SDS011;2549;52.128;21.068;2022-10-26T08:18:23;16.20;;;9.43;;
5060;SDS011;2549;52.128;21.068;2022-10-26T08:20:50;18.00;;;9.20;;
5060;SDS011;2549;52.128;21.068;2022-10-26T08:23:17;14.70;;;9.50;;
5060;SDS011;2549;52.128;21.068;2022-10-26T08:25:44;17.40;;;10.30;;
5060;SDS011;2549;52.128;21.068;2022-10-26T08:28:11;14.03;;;9.30;;
5060;SDS011;2549;52.128;21.068;2022-10-26T08:30:39;20.47;;;9.80;;
5060;SDS011;2549;52.128;21.068;2022-10-26T08:33:06;15.80;;;10.07;;
5060;SDS011;2549;52.128;21.068;2022-10-26T08:35:35;21.73;;;11.40;;
5060;SDS011;2549;52.128;21.068;2022-10-26T08:38:01;18.80;;;11.20;;
5060;SDS011;2549;52.128;21.068;2022-10-26T08:40:32;25.80;;;11.27;;
5060;SDS011;2549;52.128;21.068;2022-10-26T08:45:56;22.93;;;11.90;;
5060;SDS011;2549;52.128;21.068;2022-10-26T08:48:28;19.70;;;11.17;;
5060;SDS011;2549;52.128;21.068;2022-10-26T08:50:59;14.70;;;11.40;;
5060;SDS011;2549;52.128;21.068;2022-10-26T08:56:07;14.50;;;10.13;;
5060;SDS011;2549;52.128;21.068;2022-10-26T08:58:44;23.90;;;12.00;;
5060;SDS011;2549;52.128;21.068;2022-10-26T09:01:33;22.43;;;13.50;;
5060;SDS011;2549;52.128;21.068;2022-10-26T09:04:00;24.77;;;13.80;;
5060;SDS011;2549;52.128;21.068;2022-10-26T09:09:02;20.30;;;11.40;;
5060;SDS011;2549;52.128;21.068;2022-10-26T09:14:46;21.73;;;11.83;;
5060;SDS011;2549;52.128;21.068;2022-10-26T09:17:46;15.73;;;10.03;;
5060;SDS011;2549;52.128;21.068;2022-10-26T09:23:21;18.20;;;10.40;;
5060;SDS011;2549;52.128;21.068;2022-10-26T09:26:04;13.53;;;8.60;;
5060;SDS011;2549;52.128;21.068;2022-10-26T09:28:38;13.83;;;7.00;;
5060;SDS011;2549;52.128;21.068;2022-10-26T09:31:08;10.50;;;7.17;;
5060;SDS011;2549;52.128;21.068;2022-10-26T09:33:40;11.80;;;6.70;;
5060;SDS011;2549;52.128;21.068;2022-10-26T09:36:07;15.47;;;7.80;;
5060;SDS011;2549;52.128;21.068;2022-10-26T09:41:26;14.73;;;8.63;;
5060;SDS011;2549;52.128;21.068;2022-10-26T09:44:04;13.10;;;7.50;;
5060;SDS011;2549;52.128;21.068;2022-10-26T09:46:40;20.40;;;8.00;;
5060;SDS011;2549;52.128;21.068;2022-10-26T09:49:17;12.67;;;7.13;;
5060;SDS011;2549;52.128;21.068;2022-10-26T09:51:48;14.13;;;8.60;;
5060;SDS011;2549;52.128;21.068;2022-10-26T09:54:17;13.17;;;8.90;;
5060;SDS011;2549;52.128;21.068;2022-10-26T09:56:50;12.40;;;8.33;;
5060;SDS011;2549;52.128;21.068;2022-10-26T09:59:21;10.77;;;8.07;;
5060;SDS011;2549;52.128;21.068;2022-10-26T10:01:50;16.33;;;8.73;;
5060;SDS011;2549;52.128;21.068;2022-10-26T10:04:18;16.10;;;8.87;;
5060;SDS011;2549;52.128;21.068;2022-10-26T10:06:51;12.20;;;7.83;;
5060;SDS011;2549;52.128;21.068;2022-10-26T10:09:38;9.50;;;7.53;;
5060;SDS011;2549;52.128;21.068;2022-10-26T10:12:05;11.80;;;7.80;;
5060;SDS011;2549;52.128;21.068;2022-10-26T10:14:53;10.43;;;7.47;;
5060;SDS011;2549;52.128;21.068;2022-10-26T10:17:22;11.10;;;7.33;;
5060;SDS011;2549;52.128;21.068;2022-10-26T10:19:51;11.50;;;6.80;;
5060;SDS011;2549;52.128;21.068;2022-10-26T10:22:19;9.70;;;7.20;;
5060;SDS011;2549;52.128;21.068;2022-10-26T10:24:59;13.07;;;7.50;;
5060;SDS011;2549;52.128;21.068;2022-10-26T10:27:27;16.33;;;7.30;;
5060;SDS011;2549;52.128;21.068;2022-10-26T10:29:56;10.23;;;7.60;;
5060;SDS011;2549;52.128;21.068;2022-10-26T10:32:38;11.43;;;7.13;;
5060;SDS011;2549;52.128;21.068;2022-10-26T10:35:21;11.03;;;6.87;;
5060;SDS011;2549;52.128;21.068;2022-10-26T10:37:49;14.43;;;7.20;;
5060;SDS011;2549;52.128;21.068;2022-10-26T10:40:21;10.90;;;7.53;;
5060;SDS011;2549;52.128;21.068;2022-10-26T10:42:50;13.57;;;7.73;;
5060;SDS011;2549;52.128;21.068;2022-10-26T10:45:21;12.37;;;7.53;;
5060;SDS011;2549;52.128;21.068;2022-10-26T10:50:49;12.20;;;7.33;;
5060;SDS011;2549;52.128;21.068;2022-10-26T10:53:24;11.13;;;8.53;;
5060;SDS011;2549;52.128;21.068;2022-10-26T10:56:06;8.87;;;6.80;;
5060;SDS011;2549;52.128;21.068;2022-10-26T10:58:57;10.80;;;7.63;;
5060;SDS011;2549;52.128;21.068;2022-10-26T11:02:45;11.43;;;8.00;;
5060;SDS011;2549;52.128;21.068;2022-10-26T11:07:24;12.37;;;7.83;;
5060;SDS011;2549;52.128;21.068;2022-10-26T11:09:53;16.77;;;8.90;;
5060;SDS011;2549;52.128;21.068;2022-10-26T11:12:24;15.67;;;9.17;;
5060;SDS011;2549;52.128;21.068;2022-10-26T11:14:57;14.70;;;8.60;;
5060;SDS011;2549;52.128;21.068;2022-10-26T11:17:29;16.90;;;8.40;;
5060;SDS011;2549;52.128;21.068;2022-10-26T11:20:05;19.00;;;9.20;;
5060;SDS011;2549;52.128;21.068;2022-10-26T11:22:43;15.60;;;8.90;;
5060;SDS011;2549;52.128;21.068;2022-10-26T11:25:26;16.10;;;8.50;;
5060;SDS011;2549;52.128;21.068;2022-10-26T11:27:56;15.27;;;9.20;;
5060;SDS011;2549;52.128;21.068;2022-10-26T11:30:26;19.70;;;9.20;;
5060;SDS011;2549;52.128;21.068;2022-10-26T11:33:14;26.70;;;10.00;;
5060;SDS011;2549;52.128;21.068;2022-10-26T11:35:52;15.43;;;9.20;;
5060;SDS011;2549;52.128;21.068;2022-10-26T11:38:32;20.03;;;10.47;;
5060;SDS011;2549;52.128;21.068;2022-10-26T11:47:11;17.50;;;9.60;;
5060;SDS011;2549;52.128;21.068;2022-10-26T11:49:45;15.37;;;10.07;;
5060;SDS011;2549;52.128;21.068;2022-10-26T11:52:26;17.90;;;9.90;;
5060;SDS011;2549;52.128;21.068;2022-10-26T11:55:09;19.30;;;10.00;;
5060;SDS011;2549;52.128;21.068;2022-10-26T11:57:37;19.13;;;9.30;;
5060;SDS011;2549;52.128;21.068;2022-10-26T12:00:05;19.83;;;8.60;;
5060;SDS011;2549;52.128;21.068;2022-10-26T12:02:36;19.33;;;8.43;;
5060;SDS011;2549;52.128;21.068;2022-10-26T12:07:59;16.50;;;8.43;;
5060;SDS011;2549;52.128;21.068;2022-10-26T12:10:30;9.90;;;7.73;;
5060;SDS011;2549;52.128;21.068;2022-10-26T12:15:47;13.70;;;9.10;;
5060;SDS011;2549;52.128;21.068;2022-10-26T12:21:20;13.23;;;8.77;;
5060;SDS011;2549;52.128;21.068;2022-10-26T12:34:02;15.30;;;9.73;;
5060;SDS011;2549;52.128;21.068;2022-10-26T12:39:49;23.30;;;11.10;;
5060;SDS011;2549;52.128;21.068;2022-10-26T12:44:36;15.93;;;8.80;;
5060;SDS011;2549;52.128;21.068;2022-10-26T12:47:08;14.50;;;9.07;;
5060;SDS011;2549;52.128;21.068;2022-10-26T12:52:38;19.20;;;8.40;;
5060;SDS011;2549;52.128;21.068;2022-10-26T13:01:22;10.20;;;7.87;;
5060;SDS011;2549;52.128;21.068;2022-10-26T13:04:03;17.47;;;9.47;;
5060;SDS011;2549;52.128;21.068;2022-10-26T13:07:16;12.47;;;8.30;;
5060;SDS011;2549;52.128;21.068;2022-10-26T13:09:44;19.73;;;8.10;;
5060;SDS011;2549;52.128;21.068;2022-10-26T13:12:19;13.13;;;7.80;;
5060;SDS011;2549;52.128;21.068;2022-10-26T13:14:52;11.53;;;7.50;;
5060;SDS011;2549;52.128;21.068;2022-10-26T13:17:32;10.63;;;7.87;;
5060;SDS011;2549;52.128;21.068;2022-10-26T13:20:04;18.47;;;8.90;;
5060;SDS011;2549;52.128;21.068;2022-10-26T13:22:32;16.83;;;9.57;;
5060;SDS011;2549;52.128;21.068;2022-10-26T13:25:17;12.90;;;8.03;;
5060;SDS011;2549;52.128;21.068;2022-10-26T13:32:58;11.57;;;7.90;;
5060;SDS011;2549;52.128;21.068;2022-10-26T13:35:26;14.93;;;7.97;;
5060;SDS011;2549;52.128;21.068;2022-10-26T13:37:54;20.80;;;8.10;;
5060;SDS011;2549;52.128;21.068;2022-10-26T13:40:22;12.63;;;7.60;;
5060;SDS011;2549;52.128;21.068;2022-10-26T13:43:01;12.27;;;6.87;;
5060;SDS011;2549;52.128;21.068;2022-10-26T13:45:31;10.80;;;6.90;;
5060;SDS011;2549;52.128;21.068;2022-10-26T13:50:50;8.67;;;5.77;;
5060;SDS011;2549;52.128;21.068;2022-10-26T13:56:29;20.10;;;10.40;;
5060;SDS011;2549;52.128;21.068;2022-10-26T13:59:09;24.30;;;10.87;;
5060;SDS011;2549;52.128;21.068;2022-10-26T14:01:38;17.07;;;10.80;;
5060;SDS011;2549;52.128;21.068;2022-10-26T14:04:27;18.30;;;10.50;;
5060;SDS011;2549;52.128;21.068;2022-10-26T14:06:54;23.03;;;10.90;;
5060;SDS011;2549;52.128;21.068;2022-10-26T14:09:21;27.70;;;12.10;;
5060;SDS011;2549;52.128;21.068;2022-10-26T14:14:23;17.07;;;11.40;;
5060;SDS011;2549;52.128;21.068;2022-10-26T14:16:53;19.53;;;9.40;;
5060;SDS011;2549;52.128;21.068;2022-10-26T14:19:28;18.87;;;11.03;;
5060;SDS011;2549;52.128;21.068;2022-10-26T14:21:56;18.20;;;11.00;;
5060;SDS011;2549;52.128;21.068;2022-10-26T14:24:28;18.37;;;11.80;;
5060;SDS011;2549;52.128;21.068;2022-10-26T14:27:15;18.00;;;11.40;;
5060;SDS011;2549;52.128;21.068;2022-10-26T14:29:43;26.93;;;12.20;;
5060;SDS011;2549;52.128;21.068;2022-10-26T14:32:30;16.87;;;11.20;;
5060;SDS011;2549;52.128;21.068;2022-10-26T14:34:58;18.90;;;10.20;;
5060;SDS011;2549;52.128;21.068;2022-10-26T14:37:32;20.70;;;10.17;;
5060;SDS011;2549;52.128;21.068;2022-10-26T14:40:21;21.37;;;10.90;;
5060;SDS011;2549;52.128;21.068;2022-10-26T14:42:57;13.77;;;9.37;;
5060;SDS011;2549;52.128;21.068;2022-10-26T14:48:34;17.30;;;9.83;;
5060;SDS011;2549;52.128;21.068;2022-10-26T14:51:10;16.80;;;10.30;;
5060;SDS011;2549;52.128;21.068;2022-10-26T14:53:49;21.50;;;10.60;;
5060;SDS011;2549;52.128;21.068;2022-10-26T14:56:21;12.07;;;8.40;;
5060;SDS011;2549;52.128;21.068;2022-10-26T14:59:20;21.20;;;10.40;;
5060;SDS011;2549;52.128;21.068;2022-10-26T15:04:55;17.43;;;9.40;;
5060;SDS011;2549;52.128;21.068;2022-10-26T15:07:34;13.83;;;9.10;;
5060;SDS011;2549;52.128;21.068;2022-10-26T15:10:03;18.80;;;11.00;;
5060;SDS011;2549;52.128;21.068;2022-10-26T15:12:31;24.43;;;11.20;;
5060;SDS011;2549;52.128;21.068;2022-10-26T15:15:09;16.40;;;9.10;;
5060;SDS011;2549;52.128;21.068;2022-10-26T15:17:40;21.40;;;9.10;;
5060;SDS011;2549;52.128;21.068;2022-10-26T15:20:15;29.23;;;11.47;;
5060;SDS011;2549;52.128;21.068;2022-10-26T15:25:22;23.60;;;10.03;;
5060;SDS011;2549;52.128;21.068;2022-10-26T15:27:53;16.00;;;10.40;;
5060;SDS011;2549;52.128;21.068;2022-10-26T15:30:24;19.83;;;11.27;;
5060;SDS011;2549;52.128;21.068;2022-10-26T15:32:53;20.23;;;9.33;;
5060;SDS011;2549;52.128;21.068;2022-10-26T15:35:22;24.80;;;10.03;;
5060;SDS011;2549;52.128;21.068;2022-10-26T15:37:57;15.20;;;8.93;;
5060;SDS011;2549;52.128;21.068;2022-10-26T15:40:26;27.37;;;10.00;;
5060;SDS011;2549;52.128;21.068;2022-10-26T15:42:57;17.27;;;8.97;;
5060;SDS011;2549;52.128;21.068;2022-10-26T15:45:29;19.73;;;9.77;;
5060;SDS011;2549;52.128;21.068;2022-10-26T15:47:59;18.73;;;10.20;;
5060;SDS011;2549;52.128;21.068;2022-10-26T15:50:40;12.53;;;8.77;;
5060;SDS011;2549;52.128;21.068;2022-10-26T15:53:08;30.73;;;10.03;;
5060;SDS011;2549;52.128;21.068;2022-10-26T15:55:43;16.37;;;9.57;;
5060;SDS011;2549;52.128;21.068;2022-10-26T15:58:10;16.93;;;9.40;;
5060;SDS011;2549;52.128;21.068;2022-10-26T16:00:36;29.63;;;10.10;;
5060;SDS011;2549;52.128;21.068;2022-10-26T16:03:03;15.83;;;9.40;;
5060;SDS011;2549;52.128;21.068;2022-10-26T16:05:30;14.30;;;9.53;;
5060;SDS011;2549;52.128;21.068;2022-10-26T16:07:57;16.53;;;9.37;;
5060;SDS011;2549;52.128;21.068;2022-10-26T16:10:24;17.70;;;10.10;;
5060;SDS011;2549;52.128;21.068;2022-10-26T16:12:51;19.17;;;9.90;;
5060;SDS011;2549;52.128;21.068;2022-10-26T16:15:22;34.00;;;12.30;;
5060;SDS011;2549;52.128;21.068;2022-10-26T16:17:50;21.63;;;10.77;;
5060;SDS011;2549;52.128;21.068;2022-10-26T16:20:19;19.40;;;10.23;;
5060;SDS011;2549;52.128;21.068;2022-10-26T16:22:50;23.17;;;9.73;;
5060;SDS011;2549;52.128;21.068;2022-10-26T16:25:21;13.33;;;9.40;;
5060;SDS011;2549;52.128;21.068;2022-10-26T16:27:50;18.77;;;9.60;;
5060;SDS011;2549;52.128;21.068;2022-10-26T16:30:18;22.70;;;9.83;;
5060;SDS011;2549;52.128;21.068;2022-10-26T16:32:46;14.87;;;10.10;;
5060;SDS011;2549;52.128;21.068;2022-10-26T16:35:14;22.03;;;9.37;;
5060;SDS011;2549;52.128;21.068;2022-10-26T16:37:41;19.93;;;10.33;;
5060;SDS011;2549;52.128;21.068;2022-10-26T16:40:08;14.57;;;9.47;;
5060;SDS011;2549;52.128;21.068;2022-10-26T16:42:35;13.00;;;8.63;;
5060;SDS011;2549;52.128;21.068;2022-10-26T16:45:02;12.33;;;8.50;;
5060;SDS011;2549;52.128;21.068;2022-10-26T16:47:31;15.40;;;8.20;;
5060;SDS011;2549;52.128;21.068;2022-10-26T16:50:01;16.57;;;8.97;;
5060;SDS011;2549;52.128;21.068;2022-10-26T16:52:28;20.13;;;9.30;;
5060;SDS011;2549;52.128;21.068;2022-10-26T16:54:55;13.00;;;8.73;;
5060;SDS011;2549;52.128;21.068;2022-10-26T16:57:22;16.83;;;8.87;;
5060;SDS011;2549;52.128;21.068;2022-10-26T16:59:49;21.30;;;8.40;;
5060;SDS011;2549;52.128;21.068;2022-10-26T17:02:16;16.27;;;9.10;;
5060;SDS011;2549;52.128;21.068;2022-10-26T17:04:43;16.00;;;9.07;;
5060;SDS011;2549;52.128;21.068;2022-10-26T17:07:10;15.90;;;8.87;;
5060;SDS011;2549;52.128;21.068;2022-10-26T17:09:37;18.40;;;9.93;;
5060;SDS011;2549;52.128;21.068;2022-10-26T17:12:04;15.63;;;9.53;;
5060;SDS011;2549;52.128;21.068;2022-10-26T17:14:31;15.87;;;9.77;;
5060;SDS011;2549;52.128;21.068;2022-10-26T17:16:58;19.63;;;10.77;;
5060;SDS011;2549;52.128;21.068;2022-10-26T17:19:25;21.80;;;9.93;;
5060;SDS011;2549;52.128;21.068;2022-10-26T17:21:52;21.47;;;10.27;;
5060;SDS011;2549;52.128;21.068;2022-10-26T17:24:19;14.43;;;8.90;;
5060;SDS011;2549;52.128;21.068;2022-10-26T17:26:46;28.30;;;10.77;;
5060;SDS011;2549;52.128;21.068;2022-10-26T17:29:13;17.80;;;9.83;;